Time;durP1;ratioP1;P1;durP2;ratioP2;P2;SDS_P1;SDS_P2;PMS_P1;PMS_P2;Temp;Humidity;BMP_temperature;BMP_pressure;BME280_temperature;BME280_humidity;BME280_pressure;Samples;Min_cycle;Max_cycle;Signal;HPM_P1;HPM_P2
2022/05/01 00:00:44;;;;;;;;;;;;;;;18.44;60.45;100060.72;2056828;28;20316;-65
2022/05/01 00:01:44;;;;;;;;;;;;;;;18.43;60.61;100068.06;2058769;28;19925;-64
2022/05/01 00:02:45;;;;;;;;;;;;;;;18.42;60.57;100066.34;2062856;28;19917;-64
2022/05/01 00:03:45;;;;;;;;;;;;;;;18.43;60.56;100062.59;2054752;28;20577;-64
2022/05/01 00:04:45;;;;;;;;;;;;;;;18.43;60.59;100065.31;2059751;28;19913;-64
2022/05/01 00:05:46;;;;;;;;;;;;;;;18.42;60.72;100060.88;2055404;28;19917;-65
2022/05/01 00:06:46;;;;;;;;;;;;;;;18.42;60.70;100058.16;2059186;28;19925;-65
2022/05/01 00:07:46;;;;;;;;;;;;;;;18.42;60.67;100060.00;2062517;28;19944;-64
2022/05/01 00:08:47;;;;;;;;;;;;;;;18.41;60.56;100059.16;2056925;28;20541;-65
2022/05/01 00:09:47;;;;;;;;;;;;;;;18.41;60.59;100059.16;2058560;28;19968;-64
2022/05/01 00:10:48;;;;;;;;;;;;;;;18.41;60.64;100059.16;2057979;28;19917;-64
2022/05/01 00:11:48;;;;;;;;;;;;;;;18.41;60.63;100061.88;2056884;28;19914;-65
2022/05/01 00:12:49;;;;;;;;;;;;;;;18.40;60.67;100062.91;2059987;28;19918;-65
2022/05/01 00:13:50;;;;;;;;;;;;;;;18.41;60.73;100058.28;2058262;28;19917;-65
2022/05/01 00:14:50;;;;;;;;;;;;;;;18.40;60.78;100068.34;2060150;28;20311;-65
2022/05/01 00:15:50;;;;;;;;;;;;;;;18.41;60.83;100058.28;2056734;28;21070;-64
2022/05/01 00:16:50;;;;;;;;;;;;;;;18.40;60.68;100057.44;2058158;28;19921;-65
2022/05/01 00:17:51;;;;;;;;;;;;;;;18.40;60.85;100060.16;2059191;28;19913;-65
2022/05/01 00:18:51;;;;;;;;;;;;;;;18.39;60.84;100061.16;2058127;28;19928;-64
2022/05/01 00:19:51;;;;;;;;;;;;;;;18.39;60.84;100055.69;2058834;28;19924;-65
2022/05/01 00:20:52;;;;;;;;;;;;;;;18.39;60.96;100055.69;2059089;28;19974;-65
2022/05/01 00:21:55;;;;;;;;;;;;;;;18.40;60.75;100062.03;2057526;28;20000;-65
2022/05/01 00:22:56;;;;;;;;;;;;;;;18.39;60.78;100055.69;2066330;28;19921;-65
2022/05/01 00:23:56;;;;;;;;;;;;;;;18.39;60.65;100055.69;2064075;28;19923;-65
2022/05/01 00:24:57;;;;;;;;;;;;;;;18.40;60.85;100053.84;2057915;28;19917;-65
2022/05/01 00:25:58;;;;;;;;;;;;;;;18.39;60.69;100050.25;2059763;28;19917;-65
2022/05/01 00:26:59;;;;;;;;;;;;;;;18.40;60.87;100051.13;2057345;28;20452;-65
2022/05/01 00:27:59;;;;;;;;;;;;;;;18.40;60.78;100049.25;2059450;28;19915;-63
2022/05/01 00:29:04;;;;;;;;;;;;;;;18.40;60.74;100046.53;2057568;28;19909;-65
2022/05/01 00:30:05;;;;;;;;;;;;;;;18.39;60.65;100049.38;2057133;28;20328;-65
2022/05/01 00:31:06;;;;;;;;;;;;;;;18.40;60.52;100046.53;2058354;28;19914;-64
2022/05/01 00:32:07;;;;;;;;;;;;;;;18.40;60.56;100045.66;2054977;28;19910;-65
2022/05/01 00:37:04;;;;;;;;;;;;;;;18.40;60.58;100046.53;2052729;28;20058;-65
2022/05/01 00:38:05;;;;;;;;;;;;;;;18.41;60.68;100045.50;2058555;28;19953;-66
2022/05/01 00:39:06;;;;;;;;;;;;;;;18.40;60.63;100046.53;2056507;28;19924;-64
2022/05/01 00:40:07;;;;;;;;;;;;;;;18.41;60.69;100047.38;2060162;28;19956;-64
2022/05/01 00:41:07;;;;;;;;;;;;;;;18.39;60.73;100039.31;2058972;28;19943;-64
2022/05/01 00:42:08;;;;;;;;;;;;;;;18.41;60.77;100048.22;2058309;28;19979;-64
2022/05/01 00:43:08;;;;;;;;;;;;;;;18.39;60.66;100047.50;2058480;28;19917;-65
2022/05/01 00:44:12;;;;;;;;;;;;;;;18.40;60.72;100051.97;2056425;28;19944;-65
2022/05/01 00:45:12;;;;;;;;;;;;;;;18.39;60.56;100050.25;2058850;28;19917;-65
2022/05/01 00:46:13;;;;;;;;;;;;;;;18.38;60.59;100043.06;2059709;28;19917;-64
2022/05/01 00:47:13;;;;;;;;;;;;;;;18.39;60.69;100043.94;2055622;28;19974;-64
2022/05/01 00:48:13;;;;;;;;;;;;;;;18.39;60.62;100044.78;2057716;28;20506;-64
2022/05/01 00:49:15;;;;;;;;;;;;;;;18.38;60.71;100043.06;2056520;28;20391;-64
2022/05/01 00:50:16;;;;;;;;;;;;;;;18.38;60.75;100043.06;2055385;28;19924;-65
2022/05/01 00:51:17;;;;;;;;;;;;;;;18.37;60.78;100046.81;2058256;28;19917;-67
2022/05/01 00:52:19;;;;;;;;;;;;;;;18.38;60.91;100048.53;2055995;28;19909;-64
2022/05/01 00:53:20;;;;;;;;;;;;;;;18.37;60.86;100046.81;2057400;28;20307;-65
2022/05/01 00:54:21;;;;;;;;;;;;;;;18.37;60.97;100044.09;2060209;28;19932;-64
2022/05/01 00:55:22;;;;;;;;;;;;;;;18.37;60.91;100033.19;2064433;28;19994;-64
2022/05/01 00:56:24;;;;;;;;;;;;;;;18.37;60.80;100044.09;2058757;28;20827;-65
2022/05/01 00:57:25;;;;;;;;;;;;;;;18.37;61.03;100044.09;2054691;28;19937;-64
2022/05/01 00:58:25;;;;;;;;;;;;;;;18.38;60.88;100039.50;2058868;28;19924;-64
2022/05/01 00:59:26;;;;;;;;;;;;;;;18.37;60.77;100035.91;2058917;28;19921;-64
2022/05/01 01:00:26;;;;;;;;;;;;;;;18.37;60.97;100041.38;2059288;28;20007;-65
2022/05/01 01:01:26;;;;;;;;;;;;;;;18.37;60.88;100041.38;2058657;28;19931;-65
2022/05/01 01:02:27;;;;;;;;;;;;;;;18.38;60.91;100043.06;2053629;28;19924;-65
2022/05/01 01:03:27;;;;;;;;;;;;;;;18.39;60.92;100043.94;2056530;28;20150;-64
2022/05/01 01:04:27;;;;;;;;;;;;;;;18.38;60.91;100043.06;2056280;28;19913;-65
2022/05/01 01:05:28;;;;;;;;;;;;;;;18.39;60.78;100044.78;2055577;28;20032;-65
2022/05/01 01:06:29;;;;;;;;;;;;;;;18.37;60.75;100032.28;2053118;28;20392;-66
2022/05/01 01:07:29;;;;;;;;;;;;;;;18.38;60.86;100037.63;2065718;28;19963;-66
2022/05/01 01:08:29;;;;;;;;;;;;;;;18.39;60.74;100039.31;2058121;28;19917;-64
2022/05/01 01:09:30;;;;;;;;;;;;;;;18.38;60.76;100036.75;2058224;28;19926;-65
2022/05/01 01:10:30;;;;;;;;;;;;;;;18.38;60.91;100037.63;2056191;28;19917;-66
2022/05/01 01:11:31;;;;;;;;;;;;;;;18.39;60.78;100036.59;2058474;28;19924;-64
2022/05/01 01:13:49;;;;;;;;;;;;;;;18.36;60.69;100031.44;2056556;28;20898;-65
2022/05/01 01:14:50;;;;;;;;;;;;;;;18.37;60.76;100030.44;2058324;28;19910;-65
2022/05/01 01:15:50;;;;;;;;;;;;;;;18.37;60.79;100030.44;2056327;28;20585;-64
2022/05/01 01:16:50;;;;;;;;;;;;;;;18.37;60.78;100024.09;2060312;28;19918;-64
2022/05/01 01:17:54;;;;;;;;;;;;;;;18.36;60.83;100028.72;2056691;28;19923;-64
2022/05/01 01:18:54;;;;;;;;;;;;;;;18.36;60.82;100025.97;2055570;28;20186;-65
2022/05/01 01:19:55;;;;;;;;;;;;;;;18.37;60.79;100026.84;2059626;28;19943;-64
2022/05/01 01:20:55;;;;;;;;;;;;;;;18.35;60.96;100026.16;2056743;28;19943;-65
2022/05/01 01:21:56;;;;;;;;;;;;;;;18.35;60.96;100027.00;2059539;28;19917;-65
2022/05/01 01:22:58;;;;;;;;;;;;;;;18.35;60.95;100027.00;2053932;28;19921;-64
2022/05/01 01:23:59;;;;;;;;;;;;;;;18.34;60.84;100025.25;2065832;28;19932;-64
2022/05/01 01:25:00;;;;;;;;;;;;;;;18.35;60.89;100029.72;2063937;28;19913;-64
2022/05/01 01:26:01;;;;;;;;;;;;;;;18.36;60.90;100028.72;2056211;28;19914;-65
2022/05/01 01:27:01;;;;;;;;;;;;;;;18.35;60.90;100032.47;2058836;28;19917;-65
2022/05/01 01:28:03;;;;;;;;;;;;;;;18.36;60.61;100038.78;2056582;28;19917;-65
2022/05/01 01:31:40;;;;;;;;;;;;;;;18.35;60.81;100027.00;2059757;28;19975;-66
2022/05/01 01:31:44;;;;;;;;;;;;;;;18.35;60.82;100026.16;2052927;28;20037;-65
2022/05/01 01:32:45;;;;;;;;;;;;;;;18.36;60.82;100028.72;2056743;28;19925;-65
2022/05/01 01:33:48;;;;;;;;;;;;;;;18.37;60.72;100035.91;2055368;28;20746;-65
2022/05/01 01:34:49;;;;;;;;;;;;;;;18.36;60.83;100028.72;2056910;28;19917;-65
2022/05/01 01:35:50;;;;;;;;;;;;;;;18.37;60.86;100029.56;2056994;28;19913;-65
2022/05/01 01:36:51;;;;;;;;;;;;;;;18.36;60.88;100028.72;2059167;28;19971;-65
2022/05/01 01:37:52;;;;;;;;;;;;;;;18.36;60.81;100031.44;2056624;28;19964;-64
2022/05/01 01:38:53;;;;;;;;;;;;;;;18.37;60.81;100030.44;2060496;28;19917;-64
2022/05/01 01:39:54;;;;;;;;;;;;;;;18.36;60.73;100034.16;2055490;28;19924;-65
2022/05/01 01:40:55;;;;;;;;;;;;;;;18.36;60.89;100033.31;2060351;28;20347;-64
2022/05/01 01:41:56;;;;;;;;;;;;;;;18.35;60.90;100027.00;2058364;28;20388;-64
2022/05/01 01:42:58;;;;;;;;;;;;;;;18.36;60.87;100027.84;2055940;28;20023;-64
2022/05/01 01:43:59;;;;;;;;;;;;;;;18.36;60.78;100017.78;2055991;28;19917;-65
2022/05/01 01:45:00;;;;;;;;;;;;;;;18.36;60.73;100025.13;2058267;28;20464;-65
2022/05/01 01:46:00;;;;;;;;;;;;;;;18.34;60.78;100030.72;2055353;28;19914;-65
2022/05/01 01:47:00;;;;;;;;;;;;;;;18.37;60.69;100030.44;2063728;28;20625;-65
2022/05/01 01:48:10;;;;;;;;;;;;;;;18.35;60.64;100023.41;2059368;28;19917;-64
2022/05/01 01:49:10;;;;;;;;;;;;;;;18.33;60.86;100009.91;2058540;28;19921;-64
2022/05/01 01:50:14;;;;;;;;;;;;;;;18.35;60.69;100013.34;2057013;28;20676;-65
2022/05/01 01:51:15;;;;;;;;;;;;;;;18.35;60.87;100024.28;2055128;28;19914;-65
2022/05/01 01:52:15;;;;;;;;;;;;;;;18.34;60.81;100029.88;2057816;28;19932;-65
2022/05/01 01:53:17;;;;;;;;;;;;;;;18.34;60.76;100030.72;2056839;28;19921;-65
2022/05/01 01:54:17;;;;;;;;;;;;;;;18.34;60.84;100025.25;2050036;28;19949;-65
2022/05/01 01:55:18;;;;;;;;;;;;;;;18.34;60.83;100030.72;2053018;28;19917;-65
2022/05/01 01:56:18;;;;;;;;;;;;;;;18.33;60.94;100017.25;2061197;28;19917;-65
2022/05/01 01:57:18;;;;;;;;;;;;;;;18.34;60.81;100024.41;2054650;28;19968;-65
2022/05/01 01:58:19;;;;;;;;;;;;;;;18.33;60.83;100023.56;2056300;28;19917;-66
2022/05/01 01:59:22;;;;;;;;;;;;;;;18.32;60.78;100024.53;2057985;28;20308;-65
2022/05/01 02:00:22;;;;;;;;;;;;;;;18.32;60.85;100027.28;2056697;28;20574;-65
2022/05/01 02:01:22;;;;;;;;;;;;;;;18.34;60.90;100029.88;2059406;28;19921;-65
2022/05/01 02:02:23;;;;;;;;;;;;;;;18.32;60.86;100030.00;2057746;28;19922;-65
2022/05/01 02:03:23;;;;;;;;;;;;;;;18.33;60.81;100028.16;2054331;28;19960;-65
2022/05/01 02:04:24;;;;;;;;;;;;;;;18.32;60.76;100024.53;2057998;28;19921;-65
2022/05/01 02:05:24;;;;;;;;;;;;;;;18.32;60.75;100021.81;2055021;28;20917;-63
2022/05/01 02:06:25;;;;;;;;;;;;;;;18.34;60.88;100028.00;2058020;28;19952;-64
2022/05/01 02:07:28;;;;;;;;;;;;;;;18.33;60.84;100037.19;2055746;28;19925;-64
2022/05/01 02:08:28;;;;;;;;;;;;;;;18.34;60.77;100029.88;2055025;28;19924;-65
2022/05/01 02:09:30;;;;;;;;;;;;;;;18.34;60.75;100030.72;2059037;28;20414;-64
2022/05/01 02:10:31;;;;;;;;;;;;;;;18.34;60.64;100030.72;2056406;28;19957;-66
2022/05/01 02:11:33;;;;;;;;;;;;;;;18.34;60.76;100033.44;2057853;28;19924;-66
2022/05/01 02:12:33;;;;;;;;;;;;;;;18.34;60.65;100029.88;2060040;28;19909;-64
2022/05/01 02:13:34;;;;;;;;;;;;;;;18.34;60.93;100030.72;2055930;28;19982;-64
2022/05/01 02:14:34;;;;;;;;;;;;;;;18.34;60.66;100030.72;2059985;28;19917;-65
2022/05/01 02:15:35;;;;;;;;;;;;;;;18.34;60.66;100030.72;2060989;28;19917;-65
2022/05/01 02:16:35;;;;;;;;;;;;;;;18.34;60.66;100035.31;2059510;28;19918;-65
2022/05/01 02:17:38;;;;;;;;;;;;;;;18.34;60.69;100032.59;2056994;28;19967;-65
2022/05/01 02:18:38;;;;;;;;;;;;;;;18.33;60.78;100034.47;2052987;28;19917;-64
2022/05/01 02:19:39;;;;;;;;;;;;;;;18.31;60.68;100033.75;2051900;28;19914;-66
2022/05/01 02:21:58;;;;;;;;;;;;;;;18.32;60.88;100026.41;2053117;28;19913;-65
2022/05/01 02:23:00;;;;;;;;;;;;;;;18.32;60.78;100024.53;2054572;28;19918;-65
2022/05/01 02:24:01;;;;;;;;;;;;;;;18.32;60.81;100027.28;2054705;28;19910;-64
2022/05/01 02:25:02;;;;;;;;;;;;;;;18.31;60.71;100022.84;2057142;28;20228;-64
2022/05/01 02:26:03;;;;;;;;;;;;;;;18.31;60.83;100025.56;2056183;28;19922;-64
2022/05/01 02:27:03;;;;;;;;;;;;;;;18.31;60.88;100031.03;2057101;28;19999;-65
2022/05/01 02:28:04;;;;;;;;;;;;;;;18.31;60.93;100020.09;2056300;28;19964;-64
2022/05/01 02:29:09;;;;;;;;;;;;;;;18.29;60.85;100015.81;2056612;28;19909;-65
2022/05/01 02:30:10;;;;;;;;;;;;;;;18.31;60.76;100016.53;2058159;28;20361;-64
2022/05/01 02:31:11;;;;;;;;;;;;;;;18.31;60.85;100019.25;2057240;28;19910;-64
2022/05/01 02:32:12;;;;;;;;;;;;;;;18.31;60.83;100014.66;2055346;28;20705;-65
2022/05/01 02:33:13;;;;;;;;;;;;;;;18.30;60.76;100023.84;2051706;28;20031;-65
2022/05/01 02:34:13;;;;;;;;;;;;;;;18.31;60.82;100030.16;2054817;28;19952;-63
2022/05/01 02:35:13;;;;;;;;;;;;;;;18.31;60.87;100019.25;2058169;28;19985;-64
2022/05/01 02:36:16;;;;;;;;;;;;;;;18.31;60.76;100022.84;2053919;28;19925;-65
2022/05/01 02:37:16;;;;;;;;;;;;;;;18.32;60.84;100021.81;2055757;28;19979;-65
2022/05/01 02:38:17;;;;;;;;;;;;;;;18.31;60.77;100017.38;2051764;28;20095;-65
2022/05/01 02:39:20;;;;;;;;;;;;;;;18.33;60.83;100019.97;2056653;28;19964;-65
2022/05/01 02:40:20;;;;;;;;;;;;;;;18.32;60.78;100010.03;2055480;28;19928;-65
2022/05/01 02:41:20;;;;;;;;;;;;;;;18.31;60.71;100020.09;2054356;28;19964;-66
2022/05/01 02:42:21;;;;;;;;;;;;;;;18.32;60.86;100016.34;2058303;28;19924;-64
2022/05/01 02:43:21;;;;;;;;;;;;;;;18.32;60.72;100016.34;2053002;28;19924;-65
2022/05/01 02:44:21;;;;;;;;;;;;;;;18.33;60.75;100022.69;2056322;28;19920;-64
2022/05/01 02:45:22;;;;;;;;;;;;;;;18.32;60.74;100016.34;2057384;28;19971;-65
2022/05/01 02:46:22;;;;;;;;;;;;;;;18.33;60.86;100017.25;2055069;28;19917;-65
2022/05/01 02:47:23;;;;;;;;;;;;;;;18.32;60.70;100020.97;2065580;28;19917;-65
2022/05/01 02:48:23;;;;;;;;;;;;;;;18.33;60.85;100017.25;2064455;28;20264;-64
2022/05/01 02:49:23;;;;;;;;;;;;;;;18.32;60.83;100016.34;2058243;28;19967;-64
2022/05/01 02:50:24;;;;;;;;;;;;;;;18.31;60.72;100006.47;2057790;28;19940;-65
2022/05/01 02:51:24;;;;;;;;;;;;;;;18.31;60.69;100014.66;2056349;28;19918;-64
2022/05/01 02:52:24;;;;;;;;;;;;;;;18.31;60.75;100009.19;2066069;28;19991;-64
2022/05/01 02:53:25;;;;;;;;;;;;;;;18.31;60.60;100014.66;2054739;28;19979;-65
2022/05/01 02:54:25;;;;;;;;;;;;;;;18.31;60.68;100017.38;2056930;28;19917;-65
2022/05/01 02:55:25;;;;;;;;;;;;;;;18.31;60.91;100017.38;2053608;28;19918;-65
2022/05/01 02:56:26;;;;;;;;;;;;;;;18.29;60.90;100019.38;2060195;28;19917;-65
2022/05/01 02:57:26;;;;;;;;;;;;;;;18.30;60.86;100018.41;2056827;28;19914;-66
2022/05/01 02:58:27;;;;;;;;;;;;;;;18.29;60.72;100011.19;2057531;28;20008;-66
2022/05/01 02:59:28;;;;;;;;;;;;;;;18.29;60.81;100019.38;2059571;28;19924;-65
2022/05/01 03:00:28;;;;;;;;;;;;;;;18.29;60.89;100015.81;2056822;28;20756;-65
2022/05/01 03:01:31;;;;;;;;;;;;;;;18.29;60.81;100016.66;2060126;28;20407;-65
2022/05/01 03:02:32;;;;;;;;;;;;;;;18.29;60.78;100013.94;2053373;28;19921;-65
2022/05/01 03:03:33;;;;;;;;;;;;;;;18.29;60.78;100016.66;2054895;28;20417;-66
2022/05/01 03:04:34;;;;;;;;;;;;;;;18.28;60.73;100012.22;2055641;28;20392;-64
2022/05/01 03:05:34;;;;;;;;;;;;;;;18.28;60.77;100008.63;2057843;28;19971;-65
2022/05/01 03:06:35;;;;;;;;;;;;;;;18.28;60.90;100014.94;2058553;28;19926;-65
2022/05/01 03:07:36;;;;;;;;;;;;;;;18.29;60.71;100011.19;2060065;28;19917;-65
2022/05/01 03:08:36;;;;;;;;;;;;;;;18.28;60.79;100009.50;2056146;28;20287;-65
2022/05/01 03:09:38;;;;;;;;;;;;;;;18.29;60.85;100013.94;2060619;28;20877;-65
2022/05/01 03:10:38;;;;;;;;;;;;;;;18.29;60.85;100016.66;2053348;28;20363;-65
2022/05/01 03:11:39;;;;;;;;;;;;;;;18.29;60.88;100008.47;2056209;28;19914;-65
2022/05/01 03:12:39;;;;;;;;;;;;;;;18.29;60.79;100011.19;2052784;28;19949;-65
2022/05/01 03:13:39;;;;;;;;;;;;;;;18.30;60.62;100018.41;2053377;28;19910;-65
2022/05/01 03:14:40;;;;;;;;;;;;;;;18.30;60.84;100012.94;2058959;28;19910;-65
2022/05/01 03:15:40;;;;;;;;;;;;;;;18.31;60.75;100016.53;2048989;28;20067;-64
2022/05/01 03:16:41;;;;;;;;;;;;;;;18.29;60.73;100010.34;2059734;28;19920;-65
2022/05/01 03:22:57;;;;;;;;;;;;;;;18.29;60.67;100011.19;2055811;28;19917;-64
2022/05/01 03:23:57;;;;;;;;;;;;;;;18.29;60.56;100016.66;2054565;28;19906;-64
2022/05/01 03:24:58;;;;;;;;;;;;;;;18.29;60.69;100013.94;2058744;28;20669;-65
2022/05/01 03:25:58;;;;;;;;;;;;;;;18.29;60.74;100013.06;2054794;28;20420;-65
2022/05/01 03:26:58;;;;;;;;;;;;;;;18.27;60.80;100007.75;2058382;28;19921;-66
2022/05/01 03:27:59;;;;;;;;;;;;;;;18.28;60.78;100011.38;2055712;28;20388;-64
2022/05/01 03:28:59;;;;;;;;;;;;;;;18.28;60.83;100003.19;2056238;28;20193;-65
2022/05/01 03:30:18;;;;;;;;;;;;;;;18.28;60.77;100008.63;2059909;28;20171;-65
2022/05/01 03:31:18;;;;;;;;;;;;;;;18.27;60.83;100002.28;2057493;28;19924;-65
2022/05/01 03:32:19;;;;;;;;;;;;;;;18.27;60.66;100006.91;2056724;28;20403;-64
2022/05/01 03:33:22;;;;;;;;;;;;;;;18.27;60.82;99999.56;2059468;28;20521;-64
2022/05/01 03:34:23;;;;;;;;;;;;;;;18.27;60.59;100009.63;2054398;28;19917;-65
2022/05/01 03:35:24;;;;;;;;;;;;;;;18.27;60.85;100006.91;2050087;28;19930;-65
2022/05/01 03:36:26;;;;;;;;;;;;;;;18.27;60.76;100001.44;2057537;28;20732;-65
2022/05/01 03:37:26;;;;;;;;;;;;;;;18.27;60.83;100010.47;2056356;28;19924;-65
2022/05/01 03:38:26;;;;;;;;;;;;;;;18.27;60.93;100009.63;2057664;28;20408;-65
2022/05/01 03:39:27;;;;;;;;;;;;;;;18.28;60.79;100014.09;2054202;28;20013;-66
2022/05/01 03:40:28;;;;;;;;;;;;;;;18.27;60.91;100012.34;2059781;28;19916;-66
2022/05/01 03:41:28;;;;;;;;;;;;;;;18.27;60.70;100007.75;2058598;28;20545;-64
2022/05/01 03:42:28;;;;;;;;;;;;;;;18.28;60.90;100014.09;2057748;28;19917;-65
2022/05/01 03:43:28;;;;;;;;;;;;;;;18.28;60.89;100003.19;2059510;28;19991;-65
2022/05/01 03:44:29;;;;;;;;;;;;;;;18.29;60.73;100010.34;2057528;28;20338;-64
2022/05/01 03:45:30;;;;;;;;;;;;;;;18.28;60.69;100014.94;2060044;28;20768;-65
2022/05/01 03:46:30;;;;;;;;;;;;;;;18.28;60.67;100014.94;2056119;28;20037;-65
2022/05/01 03:47:32;;;;;;;;;;;;;;;18.28;60.65;100000.44;2059638;28;20101;-65
2022/05/01 03:48:33;;;;;;;;;;;;;;;18.28;60.77;100004.03;2059129;28;20825;-65
2022/05/01 03:49:33;;;;;;;;;;;;;;;18.29;60.78;100011.19;2057162;28;19917;-65
2022/05/01 03:50:33;;;;;;;;;;;;;;;18.28;60.62;100008.63;2052885;28;19918;-66
2022/05/01 03:51:34;;;;;;;;;;;;;;;18.29;60.65;100013.06;2055683;28;20007;-65
2022/05/01 03:52:34;;;;;;;;;;;;;;;18.29;60.84;100013.94;2059655;28;19925;-65
2022/05/01 03:53:34;;;;;;;;;;;;;;;18.27;60.73;100010.47;2055988;28;19921;-64
2022/05/01 03:54:35;;;;;;;;;;;;;;;18.29;60.77;100011.19;2060131;28;19914;-65
2022/05/01 03:55:36;;;;;;;;;;;;;;;18.28;60.86;100011.38;2056575;28;19953;-64
2022/05/01 03:56:36;;;;;;;;;;;;;;;18.27;60.67;100013.22;2057225;28;19918;-65
2022/05/01 03:57:37;;;;;;;;;;;;;;;18.27;60.77;100010.47;2056626;28;19918;-65
2022/05/01 03:58:38;;;;;;;;;;;;;;;18.26;60.57;100016.97;2055927;28;19924;-65
2022/05/01 03:59:38;;;;;;;;;;;;;;;18.26;60.64;100011.50;2060498;28;20467;-65
2022/05/01 04:00:39;;;;;;;;;;;;;;;18.27;60.66;100015.09;2058602;28;19964;-65
2022/05/01 04:01:39;;;;;;;;;;;;;;;18.27;60.64;100012.34;2058533;28;20100;-65
2022/05/01 04:02:42;;;;;;;;;;;;;;;18.26;60.59;100014.22;2064845;28;19924;-65
2022/05/01 04:03:43;;;;;;;;;;;;;;;18.25;60.70;100009.78;2062636;28;19912;-65
2022/05/01 04:04:45;;;;;;;;;;;;;;;18.25;60.67;100008.91;2056938;28;20563;-64
2022/05/01 04:05:46;;;;;;;;;;;;;;;18.25;60.62;100009.78;2057970;28;19909;-64
2022/05/01 04:06:46;;;;;;;;;;;;;;;18.26;60.64;100008.78;2056382;28;19932;-65
2022/05/01 04:07:46;;;;;;;;;;;;;;;18.25;60.70;100009.78;2059498;28;19924;-63
2022/05/01 04:08:47;;;;;;;;;;;;;;;18.25;60.65;100012.53;2057561;28;20377;-65
2022/05/01 04:09:48;;;;;;;;;;;;;;;18.25;60.73;100008.91;2054545;28;20841;-65
2022/05/01 04:10:49;;;;;;;;;;;;;;;18.25;60.77;100008.91;2058923;28;19917;-65
2022/05/01 04:11:49;;;;;;;;;;;;;;;18.25;60.83;100012.53;2056627;28;20304;-65
2022/05/01 04:12:49;;;;;;;;;;;;;;;18.24;60.65;100013.50;2054232;28;19917;-65
2022/05/01 04:13:50;;;;;;;;;;;;;;;18.26;60.79;100013.38;2055229;28;19916;-65
2022/05/01 04:14:50;;;;;;;;;;;;;;;18.26;60.74;100016.97;2060148;28;20012;-65
2022/05/01 04:15:50;;;;;;;;;;;;;;;18.26;60.85;100010.66;2056544;28;20448;-65
2022/05/01 04:16:51;;;;;;;;;;;;;;;18.26;60.51;100007.91;2059236;28;19967;-65
2022/05/01 04:17:51;;;;;;;;;;;;;;;18.26;60.57;100011.50;2053648;28;19909;-65
2022/05/01 04:18:51;;;;;;;;;;;;;;;18.26;60.71;100013.38;2058729;28;19913;-64
2022/05/01 04:19:53;;;;;;;;;;;;;;;18.26;60.68;100014.22;2060493;28;19909;-64
2022/05/01 04:20:53;;;;;;;;;;;;;;;18.26;60.70;100008.78;2051523;28;19921;-65
2022/05/01 04:21:55;;;;;;;;;;;;;;;18.25;60.51;100009.78;2057555;28;19924;-65
2022/05/01 04:22:56;;;;;;;;;;;;;;;18.25;60.68;100009.78;2059132;28;20725;-64
2022/05/01 04:23:56;;;;;;;;;;;;;;;18.26;60.50;100016.97;2057918;28;20357;-65
2022/05/01 04:24:57;;;;;;;;;;;;;;;18.26;60.61;100016.97;2058325;28;19913;-65
2022/05/01 04:25:57;;;;;;;;;;;;;;;18.25;60.68;100012.53;2056774;28;20644;-65
2022/05/01 04:26:57;;;;;;;;;;;;;;;18.24;60.71;100013.50;2056069;28;20021;-65
2022/05/01 04:28:02;;;;;;;;;;;;;;;18.25;60.59;100020.72;2057163;28;19987;-65
2022/05/01 04:30:22;;;;;;;;;;;;;;;18.24;60.50;100016.25;2055104;28;19917;-64
2022/05/01 04:31:22;;;;;;;;;;;;;;;18.24;60.59;100021.69;2056750;28;20635;-64
2022/05/01 04:32:23;;;;;;;;;;;;;;;18.23;60.57;100022.72;2055671;28;19957;-65
2022/05/01 04:33:23;;;;;;;;;;;;;;;18.23;60.51;100028.16;2058855;28;19987;-65
2022/05/01 04:34:23;;;;;;;;;;;;;;;18.23;60.54;100017.25;2053867;28;19917;-64
2022/05/01 04:35:28;;;;;;;;;;;;;;;18.24;60.68;100018.13;2059832;28;19909;-65
2022/05/01 04:36:29;;;;;;;;;;;;;;;18.24;60.52;100029.88;2055493;28;20469;-66
2022/05/01 04:37:29;;;;;;;;;;;;;;;18.23;60.75;100022.72;2056287;28;20053;-66
2022/05/01 04:38:29;;;;;;;;;;;;;;;18.22;60.54;100020.97;2056355;28;19917;-65
2022/05/01 04:39:30;;;;;;;;;;;;;;;18.23;60.70;100028.16;2056216;28;21437;-64
2022/05/01 04:40:34;;;;;;;;;;;;;;;18.23;60.59;100025.44;2059546;28;19924;-65
2022/05/01 04:41:35;;;;;;;;;;;;;;;18.23;60.52;100027.28;2056693;28;20454;-65
2022/05/01 04:42:35;;;;;;;;;;;;;;;18.23;60.53;100027.28;2057493;28;20289;-63
2022/05/01 04:43:36;;;;;;;;;;;;;;;18.24;60.65;100032.59;2059261;28;19921;-65
2022/05/01 04:44:37;;;;;;;;;;;;;;;18.23;60.70;100030.00;2056675;28;19917;-65
2022/05/01 04:45:39;;;;;;;;;;;;;;;18.24;60.52;100032.59;2061154;28;19918;-64
2022/05/01 04:46:39;;;;;;;;;;;;;;;18.23;60.54;100033.63;2052763;28;19919;-65
2022/05/01 04:47:40;;;;;;;;;;;;;;;18.24;60.54;100035.34;2056971;28;19910;-65
2022/05/01 04:48:40;;;;;;;;;;;;;;;18.24;60.48;100029.88;2057447;28;19917;-65
2022/05/01 04:49:41;;;;;;;;;;;;;;;18.24;60.66;100035.34;2057563;28;19914;-65
2022/05/01 04:50:41;;;;;;;;;;;;;;;18.24;60.65;100035.34;2060040;28;20300;-65
2022/05/01 04:51:41;;;;;;;;;;;;;;;18.24;60.76;100035.34;2053569;28;20272;-65
2022/05/01 04:52:42;;;;;;;;;;;;;;;18.24;60.64;100024.41;2059535;28;20304;-66
2022/05/01 04:53:42;;;;;;;;;;;;;;;18.24;60.75;100035.34;2053296;28;19910;-65
2022/05/01 04:54:42;;;;;;;;;;;;;;;18.25;60.84;100033.47;2056341;28;20676;-65
2022/05/01 04:55:44;;;;;;;;;;;;;;;18.24;60.70;100029.03;2056939;28;19913;-65
2022/05/01 04:58:03;;;;;;;;;;;;;;;18.24;60.90;100040.78;2055355;28;20451;-66
2022/05/01 04:59:07;;;;;;;;;;;;;;;18.24;60.59;100035.34;2055369;28;20734;-65
2022/05/01 05:00:08;;;;;;;;;;;;;;;18.22;60.81;100026.44;2056012;28;19949;-65
2022/05/01 05:01:08;;;;;;;;;;;;;;;18.23;60.68;100036.34;2066014;28;19974;-65
2022/05/01 05:02:08;;;;;;;;;;;;;;;18.22;60.70;100037.34;2063491;28;19921;-65
2022/05/01 05:03:09;;;;;;;;;;;;;;;18.23;60.70;100039.09;2058686;28;19917;-65
2022/05/01 05:04:09;;;;;;;;;;;;;;;18.22;60.72;100031.88;2053590;28;19917;-64
2022/05/01 05:05:11;;;;;;;;;;;;;;;18.22;60.66;100037.34;2058523;28;19917;-64
2022/05/01 05:06:11;;;;;;;;;;;;;;;18.22;60.61;100037.34;2056889;28;19937;-64
2022/05/01 05:07:11;;;;;;;;;;;;;;;18.22;60.44;100031.88;2055764;28;20391;-65
2022/05/01 05:10:50;;;;;;;;;;;;;;;18.21;60.50;100036.50;2056454;28;20284;-65
2022/05/01 05:11:50;;;;;;;;;;;;;;;18.21;60.45;100038.38;2058119;28;19917;-64
2022/05/01 05:12:50;;;;;;;;;;;;;;;18.21;60.49;100044.69;2057377;28;20444;-65
2022/05/01 05:13:52;;;;;;;;;;;;;;;18.20;60.63;100034.78;2057592;28;19925;-64
2022/05/01 05:14:55;;;;;;;;;;;;;;;18.21;60.53;100041.09;2058447;28;19975;-65
2022/05/01 05:15:59;;;;;;;;;;;;;;;18.20;60.50;100039.34;2057321;28;19917;-65
2022/05/01 05:17:00;;;;;;;;;;;;;;;18.21;60.62;100038.38;2057852;28;19917;-65
2022/05/01 05:18:00;;;;;;;;;;;;;;;18.21;60.51;100041.09;2058168;28;19930;-65
2022/05/01 05:19:01;;;;;;;;;;;;;;;18.20;60.61;100039.34;2057321;28;19956;-65
2022/05/01 05:20:01;;;;;;;;;;;;;;;18.21;60.68;100046.56;2059369;28;20709;-65
2022/05/01 05:21:02;;;;;;;;;;;;;;;18.21;60.52;100052.00;2060386;28;20384;-63
2022/05/01 05:22:03;;;;;;;;;;;;;;;18.21;60.78;100043.81;2056878;28;20226;-65
2022/05/01 05:23:03;;;;;;;;;;;;;;;18.21;60.54;100041.09;2059258;28;19913;-65
2022/05/01 05:24:03;;;;;;;;;;;;;;;18.21;60.69;100047.41;2053061;28;19949;-65
2022/05/01 05:25:04;;;;;;;;;;;;;;;18.21;60.62;100043.81;2058587;28;19914;-65
2022/05/01 05:26:04;;;;;;;;;;;;;;;18.21;60.78;100046.56;2055037;28;19917;-64
2022/05/01 05:27:05;;;;;;;;;;;;;;;18.22;60.71;100053.72;2055686;28;19917;-65
2022/05/01 05:28:07;;;;;;;;;;;;;;;18.21;60.71;100046.56;2058070;28;20051;-64
2022/05/01 05:29:08;;;;;;;;;;;;;;;18.22;60.87;100053.72;2057094;28;19918;-64
2022/05/01 05:30:09;;;;;;;;;;;;;;;18.22;60.67;100048.25;2064021;28;19913;-65
2022/05/01 05:31:10;;;;;;;;;;;;;;;18.22;60.69;100045.53;2052122;28;19953;-65